Girolata — FPOD — position and weather

sailwx.info

Track history (hours):
 
Tides and Currents Weather Stations Pressure Air Temp Water Temp Dewpoint Dewpoint Depression Visibility Wind Speed Wind Dir Waves Ship Positions

Girolata

Last reported at 2018-May-27 03:15 UTC. Time now 2018-May-27 08:12 UTC.
Position N 42°00' E 008°09'.

Length 177 m; beam 27 m.

Type: Passenger vessel. MMSI: 226245000.

Date/timePositionNaut miles runAvg speedWind from/ knotsBaromVisibWave heightAir tempDewpointWater temp
2018-May-27 03:15N 42°00' E 008°09'716.0
2018-May-27 02:49N 42°04' E 008°02'815.9
2018-May-27 02:20N 42°08' E 007°53'1015.7
2018-May-27 01:42N 42°13' E 007°42'415.6
2018-May-27 01:28N 42°16' E 007°37'1315.5
2018-May-27 00:36N 42°22' E 007°22'214.9
2018-May-27 00:28N 42°24' E 007°20'714.9
2018-May-27 00:00N 42°27' E 007°12'2115.2
2018-May-26 22:35N 42°39' E 006°48'2115.3
2018-May-26 21:14N 42°51' E 006°24'314.6
2018-May-26 21:00N 42°53' E 006°20'714.0
2018-May-26 20:29N 42°55' E 006°11'3815.0
2018-May-26 17:59N 43°08' E 005°23'613.6
2018-May-26 17:30N 43°14' E 005°19'510.6
2018-May-26 17:00N 43°19' E 005°22'0 0.2
2018-May-26 16:29N 43°19' E 005°22'0 0.0
2018-May-26 15:59N 43°19' E 005°22'0 0.0
2018-May-26 15:29N 43°19' E 005°22'0 0.0
2018-May-26 14:56N 43°19' E 005°22'0 0.0
2018-May-26 14:29N 43°19' E 005°22'0 0.0
2018-May-26 13:59N 43°19' E 005°22'0 0.0
2018-May-26 13:29N 43°19' E 005°22'0 0.0
2018-May-26 12:59N 43°19' E 005°22'0 0.0
2018-May-26 12:29N 43°19' E 005°22'0 0.0
2018-May-26 11:59N 43°19' E 005°22'0 0.0
2018-May-26 11:29N 43°19' E 005°22'0 0.0
2018-May-26 10:59N 43°19' E 005°22'0 0.0
2018-May-26 10:29N 43°19' E 005°22'0 0.0
2018-May-26 09:59N 43°19' E 005°22'0 0.0
2018-May-26 09:29N 43°19' E 005°22'0 0.0
2018-May-26 08:56N 43°19' E 005°22'0 0.0
2018-May-26 08:29N 43°19' E 005°22'0 0.0
2018-May-26 07:59N 43°19' E 005°22'0 0.0
2018-May-26 07:29N 43°19' E 005°22'0 0.0
2018-May-26 06:59N 43°19' E 005°22'0 0.0
2018-May-26 06:29N 43°19' E 005°22'0 0.0
2018-May-26 05:29N 43°19' E 005°22'0 0.0
2018-May-26 05:00N 43°19' E 005°22'0 0.2
2018-May-26 04:30N 43°19' E 005°22'510.2
2018-May-26 04:00N 43°14' E 005°18'1316.3
2018-May-26 03:12N 43°05' E 005°30'917.2
2018-May-26 02:39N 42°60' E 005°41'616.7
2018-May-26 02:19N 42°57' E 005°49'1416.5
2018-May-26 01:28N 42°50' E 006°05'1216.7
2018-May-26 00:44N 42°44' E 006°19'1516.8
2018-May-25 23:51N 42°37' E 006°37'616.8
2018-May-25 23:30N 42°35' E 006°44'816.9
2018-May-25 23:00N 42°31' E 006°54'916.5
2018-May-25 22:29N 42°27' E 007°05'816.5
2018-May-25 22:00N 42°23' E 007°14'816.2
2018-May-25 21:31N 42°19' E 007°23'816.4
2018-May-25 21:01N 42°14' E 007°33'816.4
2018-May-25 20:31N 42°10' E 007°42'816.6
2018-May-25 20:00N 42°06' E 007°52'916.4
2018-May-25 19:27N 42°02' E 008°03'716.2
2018-May-25 19:00N 41°58' E 008°11'1116.7
2018-May-25 18:22N 41°53' E 008°24'20 1.2
2018-May-25 01:53N 42°03' E 008°00'717.7
2018-May-25 01:30N 42°06' E 007°52'917.9
2018-May-25 01:00N 42°10' E 007°42'1417.2
2018-May-25 00:11N 42°17' E 007°25'317.1
2018-May-25 00:00N 42°19' E 007°21'917.3
2018-May-24 23:30N 42°23' E 007°11'917.4
2018-May-24 23:00N 42°27' E 007°01'917.5
2018-May-24 22:30N 42°32' E 006°51'917.6
2018-May-24 22:00N 42°36' E 006°41'917.6
2018-May-24 21:30N 42°41' E 006°30'917.4
2018-May-24 21:00N 42°45' E 006°20'917.4
2018-May-24 20:30N 42°48' E 006°09'4216.8
2018-May-24 18:02N 43°09' E 005°20'017.0
2018-May-24 18:00N 43°09' E 005°20'714.6
2018-May-24 17:30N 43°17' E 005°20'2 4.4
2018-May-24 16:59N 43°19' E 005°22'0 0.0
2018-May-24 16:26N 43°19' E 005°22'0 0.0
2018-May-24 08:53N 43°19' E 005°22'0 0.0
2018-May-24 07:35N 43°19' E 005°22'0 0.0
2018-May-24 07:20N 43°19' E 005°22'0 0.0
2018-May-24 06:59N 43°19' E 005°22'0 0.0
2018-May-24 06:29N 43°19' E 005°22'0 0.0
2018-May-24 05:59N 43°19' E 005°22'0 0.0
2018-May-24 05:26N 43°19' E 005°22'0 0.0
2018-May-24 04:59N 43°19' E 005°22'0 0.2
2018-May-24 04:30N 43°19' E 005°22'510.1
2018-May-24 04:00N 43°14' E 005°18'5416.6
2018-May-24 00:45N 42°44' E 006°19'2516.5
2018-May-23 23:14N 42°33' E 006°49'416.0
2018-May-23 23:00N 42°31' E 006°54'816.1
2018-May-23 22:30N 42°27' E 007°03'816.5
2018-May-23 22:00N 42°23' E 007°13'1016.3
2018-May-23 21:25N 42°18' E 007°24'716.4
2018-May-23 20:58N 42°14' E 007°33'1016.3
2018-May-23 20:19N 42°09' E 007°45'125 4.9
2018-May-22 18:46N 43°12' E 005°19'414.5
2018-May-22 18:30N 43°15' E 005°19'4 7.5
2018-May-22 18:00N 43°19' E 005°22'0 0.0
2018-May-22 17:26N 43°19' E 005°22'0 0.0
2018-May-22 16:59N 43°19' E 005°22'0 0.0
2018-May-22 16:29N 43°19' E 005°22'0 0.0
2018-May-22 15:47N 43°19' E 005°22'0 0.0
2018-May-22 11:38N 43°19' E 005°22'0 0.0
2018-May-22 09:38N 43°19' E 005°22'0 0.0
2018-May-22 08:32N 43°19' E 005°22'0 0.0
2018-May-22 08:20N 43°19' E 005°22'0 0.0
2018-May-22 07:56N 43°19' E 005°22'0 0.0
2018-May-22 07:26N 43°19' E 005°22'0 0.0
2018-May-22 06:56N 43°19' E 005°22'0 0.0
2018-May-22 06:26N 43°19' E 005°22'0 0.0
2018-May-22 05:56N 43°19' E 005°22'0 0.0
2018-May-22 05:26N 43°19' E 005°22'1 2.2
2018-May-22 05:00N 43°18' E 005°21'611.0
2018-May-22 04:30N 43°13' E 005°18'1 0.0
2018-May-20 17:46N 43°12' E 005°19'414.1
2018-May-20 17:30N 43°15' E 005°19'4 2.3
2018-May-20 15:54N 43°19' E 005°22'0 0.0
2018-May-20 15:30N 43°19' E 005°22'0 0.0
2018-May-20 15:00N 43°19' E 005°22'0 0.0
2018-May-20 14:06N 43°19' E 005°22'0 0.0
2018-May-20 13:42N 43°19' E 005°22'0 0.0
2018-May-20 13:24N 43°19' E 005°22'0 0.0
2018-May-20 12:54N 43°19' E 005°22'0 0.0
2018-May-20 12:24N 43°19' E 005°22'0 0.0
2018-May-20 12:00N 43°19' E 005°22'0 0.0
2018-May-20 07:48N 43°19' E 005°22'0 0.0
2018-May-20 07:18N 43°19' E 005°22'0 0.0
2018-May-20 06:54N 43°19' E 005°22'0 0.0
2018-May-20 06:30N 43°19' E 005°22'0 0.0
2018-May-20 04:18N 43°19' E 005°22'0 0.0
2018-May-20 03:58N 43°19' E 005°22'2 4.0
2018-May-20 03:30N 43°17' E 005°20'12818.3
2018-May-19 20:32N 42°08' E 007°47'414.6
2018-May-19 20:16N 42°06' E 007°51'1414.8
2018-May-19 19:18N 41°59' E 008°08'2 0.1
2018-May-19 02:22N 41°58' E 008°10'617.3
2018-May-19 02:00N 42°02' E 008°02'817.3
2018-May-19 01:31N 42°06' E 007°52'917.6
2018-May-19 01:01N 42°10' E 007°42'3017.4
2018-May-18 23:18N 42°24' E 007°06'517.4
2018-May-18 23:01N 42°26' E 006°60'917.6
2018-May-18 22:31N 42°30' E 006°50'917.7
2018-May-18 22:01N 42°36' E 006°40'7017.5
2018-May-18 18:00N 43°12' E 005°18'612.8
2018-May-18 17:30N 43°18' E 005°21'1 1.5
2018-May-18 16:55N 43°19' E 005°22'0 0.0
2018-May-18 16:07N 43°19' E 005°22'0 0.0
2018-May-18 15:55N 43°19' E 005°22'0 0.0
2018-May-18 11:01N 43°19' E 005°22'0 0.0
2018-May-18 10:55N 43°19' E 005°22'0 0.0
2018-May-18 06:08N 43°19' E 005°22'0 0.0
2018-May-18 05:38N 43°19' E 005°22'0 0.0
2018-May-18 05:26N 43°19' E 005°22'0 0.0
2018-May-18 05:00N 43°19' E 005°22'1 1.1
2018-May-18 04:30N 43°18' E 005°22'510.0
2018-May-18 04:00N 43°14' E 005°18'10016.9
2018-May-17 22:06N 42°22' E 007°15'  
Track history (hours):
 
Tides and Currents Weather Stations Pressure Air Temp Water Temp Dewpoint Dewpoint Depression Visibility Wind Speed Wind Dir Waves Ship Positions

Girolata

Last reported at 2018-May-27 03:15 UTC. Time now 2018-May-27 08:12 UTC.
Position N 42°00' E 008°09'.

Length 177 m; beam 27 m.

Type: Passenger vessel. MMSI: 226245000.

Date/timePositionNaut miles runAvg speedWind from/ knotsBaromVisibWave heightAir tempDewpointWater temp
2018-May-27 03:15N 42°00' E 008°09'716.0
2018-May-27 02:49N 42°04' E 008°02'815.9
2018-May-27 02:20N 42°08' E 007°53'1015.7
2018-May-27 01:42N 42°13' E 007°42'415.6
2018-May-27 01:28N 42°16' E 007°37'1315.5
2018-May-27 00:36N 42°22' E 007°22'214.9
2018-May-27 00:28N 42°24' E 007°20'714.9
2018-May-27 00:00N 42°27' E 007°12'2115.2
2018-May-26 22:35N 42°39' E 006°48'2115.3
2018-May-26 21:14N 42°51' E 006°24'314.6
2018-May-26 21:00N 42°53' E 006°20'714.0
2018-May-26 20:29N 42°55' E 006°11'3815.0
2018-May-26 17:59N 43°08' E 005°23'613.6
2018-May-26 17:30N 43°14' E 005°19'510.6
2018-May-26 17:00N 43°19' E 005°22'0 0.2
2018-May-26 16:29N 43°19' E 005°22'0 0.0
2018-May-26 15:59N 43°19' E 005°22'0 0.0
2018-May-26 15:29N 43°19' E 005°22'0 0.0
2018-May-26 14:56N 43°19' E 005°22'0 0.0
2018-May-26 14:29N 43°19' E 005°22'0 0.0
2018-May-26 13:59N 43°19' E 005°22'0 0.0
2018-May-26 13:29N 43°19' E 005°22'0 0.0
2018-May-26 12:59N 43°19' E 005°22'0 0.0
2018-May-26 12:29N 43°19' E 005°22'0 0.0
2018-May-26 11:59N 43°19' E 005°22'0 0.0
2018-May-26 11:29N 43°19' E 005°22'0 0.0
2018-May-26 10:59N 43°19' E 005°22'0 0.0
2018-May-26 10:29N 43°19' E 005°22'0 0.0
2018-May-26 09:59N 43°19' E 005°22'0 0.0
2018-May-26 09:29N 43°19' E 005°22'0 0.0
2018-May-26 08:56N 43°19' E 005°22'0 0.0
2018-May-26 08:29N 43°19' E 005°22'0 0.0
2018-May-26 07:59N 43°19' E 005°22'0 0.0
2018-May-26 07:29N 43°19' E 005°22'0 0.0
2018-May-26 06:59N 43°19' E 005°22'0 0.0
2018-May-26 06:29N 43°19' E 005°22'0 0.0
2018-May-26 05:29N 43°19' E 005°22'0 0.0
2018-May-26 05:00N 43°19' E 005°22'0 0.2
2018-May-26 04:30N 43°19' E 005°22'510.2
2018-May-26 04:00N 43°14' E 005°18'1316.3
2018-May-26 03:12N 43°05' E 005°30'917.2
2018-May-26 02:39N 42°60' E 005°41'616.7
2018-May-26 02:19N 42°57' E 005°49'1416.5
2018-May-26 01:28N 42°50' E 006°05'1216.7
2018-May-26 00:44N 42°44' E 006°19'1516.8
2018-May-25 23:51N 42°37' E 006°37'616.8
2018-May-25 23:30N 42°35' E 006°44'816.9
2018-May-25 23:00N 42°31' E 006°54'916.5
2018-May-25 22:29N 42°27' E 007°05'816.5
2018-May-25 22:00N 42°23' E 007°14'816.2
2018-May-25 21:31N 42°19' E 007°23'816.4
2018-May-25 21:01N 42°14' E 007°33'816.4
2018-May-25 20:31N 42°10' E 007°42'816.6
2018-May-25 20:00N 42°06' E 007°52'916.4
2018-May-25 19:27N 42°02' E 008°03'716.2
2018-May-25 19:00N 41°58' E 008°11'1116.7
2018-May-25 18:22N 41°53' E 008°24'20 1.2
2018-May-25 01:53N 42°03' E 008°00'717.7
2018-May-25 01:30N 42°06' E 007°52'917.9
2018-May-25 01:00N 42°10' E 007°42'1417.2
2018-May-25 00:11N 42°17' E 007°25'317.1
2018-May-25 00:00N 42°19' E 007°21'917.3
2018-May-24 23:30N 42°23' E 007°11'917.4
2018-May-24 23:00N 42°27' E 007°01'917.5
2018-May-24 22:30N 42°32' E 006°51'917.6
2018-May-24 22:00N 42°36' E 006°41'917.6
2018-May-24 21:30N 42°41' E 006°30'917.4
2018-May-24 21:00N 42°45' E 006°20'917.4
2018-May-24 20:30N 42°48' E 006°09'4216.8
2018-May-24 18:02N 43°09' E 005°20'017.0
2018-May-24 18:00N 43°09' E 005°20'714.6
2018-May-24 17:30N 43°17' E 005°20'2 4.4
2018-May-24 16:59N 43°19' E 005°22'0 0.0
2018-May-24 16:26N 43°19' E 005°22'0 0.0
2018-May-24 08:53N 43°19' E 005°22'0 0.0
2018-May-24 07:35N 43°19' E 005°22'0 0.0
2018-May-24 07:20N 43°19' E 005°22'0 0.0
2018-May-24 06:59N 43°19' E 005°22'0 0.0
2018-May-24 06:29N 43°19' E 005°22'0 0.0
2018-May-24 05:59N 43°19' E 005°22'0 0.0
2018-May-24 05:26N 43°19' E 005°22'0 0.0
2018-May-24 04:59N 43°19' E 005°22'0 0.2
2018-May-24 04:30N 43°19' E 005°22'510.1
2018-May-24 04:00N 43°14' E 005°18'5416.6
2018-May-24 00:45N 42°44' E 006°19'2516.5
2018-May-23 23:14N 42°33' E 006°49'416.0
2018-May-23 23:00N 42°31' E 006°54'816.1
2018-May-23 22:30N 42°27' E 007°03'816.5
2018-May-23 22:00N 42°23' E 007°13'1016.3
2018-May-23 21:25N 42°18' E 007°24'716.4
2018-May-23 20:58N 42°14' E 007°33'1016.3
2018-May-23 20:19N 42°09' E 007°45'125 4.9
2018-May-22 18:46N 43°12' E 005°19'414.5
2018-May-22 18:30N 43°15' E 005°19'4 7.5
2018-May-22 18:00N 43°19' E 005°22'0 0.0
2018-May-22 17:26N 43°19' E 005°22'0 0.0
2018-May-22 16:59N 43°19' E 005°22'0 0.0
2018-May-22 16:29N 43°19' E 005°22'0 0.0
2018-May-22 15:47N 43°19' E 005°22'0 0.0
2018-May-22 11:38N 43°19' E 005°22'0 0.0
2018-May-22 09:38N 43°19' E 005°22'0 0.0
2018-May-22 08:32N 43°19' E 005°22'0 0.0
2018-May-22 08:20N 43°19' E 005°22'0 0.0
2018-May-22 07:56N 43°19' E 005°22'0 0.0
2018-May-22 07:26N 43°19' E 005°22'0 0.0
2018-May-22 06:56N 43°19' E 005°22'0 0.0
2018-May-22 06:26N 43°19' E 005°22'0 0.0
2018-May-22 05:56N 43°19' E 005°22'0 0.0
2018-May-22 05:26N 43°19' E 005°22'1 2.2
2018-May-22 05:00N 43°18' E 005°21'611.0
2018-May-22 04:30N 43°13' E 005°18'1 0.0
2018-May-20 17:46N 43°12' E 005°19'414.1
2018-May-20 17:30N 43°15' E 005°19'4 2.3
2018-May-20 15:54N 43°19' E 005°22'0 0.0
2018-May-20 15:30N 43°19' E 005°22'0 0.0
2018-May-20 15:00N 43°19' E 005°22'0 0.0
2018-May-20 14:06N 43°19' E 005°22'0 0.0
2018-May-20 13:42N 43°19' E 005°22'0 0.0
2018-May-20 13:24N 43°19' E 005°22'0 0.0
2018-May-20 12:54N 43°19' E 005°22'0 0.0
2018-May-20 12:24N 43°19' E 005°22'0 0.0
2018-May-20 12:00N 43°19' E 005°22'0 0.0
2018-May-20 07:48N 43°19' E 005°22'0 0.0
2018-May-20 07:18N 43°19' E 005°22'0 0.0
2018-May-20 06:54N 43°19' E 005°22'0 0.0
2018-May-20 06:30N 43°19' E 005°22'0 0.0
2018-May-20 04:18N 43°19' E 005°22'0 0.0
2018-May-20 03:58N 43°19' E 005°22'2 4.0
2018-May-20 03:30N 43°17' E 005°20'12818.3
2018-May-19 20:32N 42°08' E 007°47'414.6
2018-May-19 20:16N 42°06' E 007°51'1414.8
2018-May-19 19:18N 41°59' E 008°08'2 0.1
2018-May-19 02:22N 41°58' E 008°10'617.3
2018-May-19 02:00N 42°02' E 008°02'817.3
2018-May-19 01:31N 42°06' E 007°52'917.6
2018-May-19 01:01N 42°10' E 007°42'3017.4
2018-May-18 23:18N 42°24' E 007°06'517.4
2018-May-18 23:01N 42°26' E 006°60'917.6
2018-May-18 22:31N 42°30' E 006°50'917.7
2018-May-18 22:01N 42°36' E 006°40'7017.5
2018-May-18 18:00N 43°12' E 005°18'612.8
2018-May-18 17:30N 43°18' E 005°21'1 1.5
2018-May-18 16:55N 43°19' E 005°22'0 0.0
2018-May-18 16:07N 43°19' E 005°22'0 0.0
2018-May-18 15:55N 43°19' E 005°22'0 0.0
2018-May-18 11:01N 43°19' E 005°22'0 0.0
2018-May-18 10:55N 43°19' E 005°22'0 0.0
2018-May-18 06:08N 43°19' E 005°22'0 0.0
2018-May-18 05:38N 43°19' E 005°22'0 0.0
2018-May-18 05:26N 43°19' E 005°22'0 0.0
2018-May-18 05:00N 43°19' E 005°22'1 1.1
2018-May-18 04:30N 43°18' E 005°22'510.0
2018-May-18 04:00N 43°14' E 005°18'10016.9
2018-May-17 22:06N 42°22' E 007°15'  

Dump ship's entire track history